Latest Coastal Weather Observations for Kiama

IDN60701

Issued at 5:35 pm EST Friday 1 August 2014 (issued every 10 minutes, with the page automatically refreshed every 10 minutes)

About coastal observations | Map of coastal stations | Coastal observations for NSW | Marine services | Other Formats
Station Details ID: 068242 Name: KIAMA (BOMBO HEADLAND) Lat: -34.65 Lon: 150.86 Height: 15.5 m
Data from the previous 72 hours. | See also: Recent months at Kiama
Date/Time
EST
Temp

°C
Wind Pressure Rain
since 9am
mm
Weather Cloud Vis
km
Sea
Height
m
Swell
Dir
 
Speed
knots
Gust
knots
hPa Trend Height
m
Period
s
Dir
01/05:30pm 11.6 WNW 20 37 - - 0.0 - - - - - - -
01/05:00pm 12.2 WNW 18 39 - - 0.0 - - - - - - -
01/04:30pm 13.2 WNW 22 32 - - 0.0 - - - - - - -
01/04:00pm 13.9 WNW 19 31 - - 0.0 - - - - - - -
01/03:30pm 14.4 WNW 16 32 - - 0.0 - - - - - - -
01/03:00pm 14.7 WNW 20 31 - - 0.0 - - - - - - -
01/02:30pm 15.0 WNW 19 36 - - 0.0 - - - - - - -
01/02:00pm 15.3 WNW 16 32 - - 0.0 - - - - - - -
01/01:30pm 15.1 WNW 17 27 - - 0.0 - - - - - - -
01/01:01pm 14.5 WNW 16 27 - - 0.0 - - - - - - -
01/01:00pm 14.6 WNW 15 25 - - 0.0 - - - - - - -
01/12:30pm 14.5 WNW 14 24 - - 0.0 - - - - - - -
01/12:02pm 14.6 WNW 15 25 - - 0.0 - - - - - - -
01/12:00pm 14.7 WNW 14 25 - - 0.0 - - - - - - -
01/11:30am 14.7 W 13 25 - - 0.0 - - - - - - -
01/11:00am 14.7 WNW 11 23 - - 0.0 - - - - - - -
01/10:32am 14.0 W 15 25 - - 0.0 - - - - - - -
01/10:30am 13.9 W 17 25 - - 0.0 - - - - - - -
01/10:00am 14.8 W 10 18 - - 0.0 - - - - - - -
01/09:30am 14.4 W 9 15 - - 0.0 - - - - - - -
01/09:00am 15.2 WNW 7 15 - - 0.0 - - - - - - -
01/08:30am 14.3 WNW 7 12 - - 0.0 - - - - - - -
01/08:00am 14.1 W 12 17 - - 0.0 - - - - - - -
01/07:30am 13.7 SW 5 8 - - 0.0 - - - - - - -
01/07:00am 13.4 WSW 6 10 - - 0.0 - - - - - - -
01/06:30am 13.9 W 7 9 - - 0.0 - - - - - - -
01/06:00am 14.9 W 9 15 - - 0.0 - - - - - - -
01/05:30am 16.0 NW 11 21 - - 0.0 - - - - - - -
01/05:19am 16.6 WNW 15 26 - - 0.0 - - - - - - -
01/05:00am 17.4 WNW 10 20 - - 0.0 - - - - - - -
01/04:30am 18.1 W 7 16 - - 0.0 - - - - - - -
01/04:00am 17.5 WNW 8 13 - - 0.0 - - - - - - -
01/03:30am 14.8 W 5 7 - - 0.0 - - - - - - -
01/03:00am 17.0 N 4 10 - - 0.0 - - - - - - -
01/02:30am 16.9 NNW 6 8 - - 0.0 - - - - - - -
01/02:00am 16.4 NW 5 11 - - 0.0 - - - - - - -
01/01:30am 17.7 N 8 18 - - 0.0 - - - - - - -
01/01:00am 17.8 N 13 19 - - 0.0 - - - - - - -
01/12:30am 17.2 NNW 3 7 - - 0.0 - - - - - - -
01/12:00am 17.9 N 12 19 - - 0.0 - - - - - - -
 
Date/Time
EST
Temp

°C
Wind Pressure Rain
since 9am
mm
Weather Cloud Vis
km
Sea
Height
m
Swell
Dir
 
Speed
knots
Gust
knots
hPa Trend Height
m
Period
s
Dir
31/11:30pm 18.3 N 11 17 - - 0.0 - - - - - - -
31/11:00pm 18.2 N 10 15 - - 0.0 - - - - - - -
31/10:30pm 17.8 N 4 9 - - 0.0 - - - - - - -
31/10:00pm 18.7 N 10 17 - - 0.0 - - - - - - -
31/09:30pm 18.7 N 6 11 - - 0.0 - - - - - - -
31/09:00pm 19.3 N 10 17 - - 0.0 - - - - - - -
31/08:30pm 20.1 N 12 20 - - 0.0 - - - - - - -
31/08:00pm 19.9 N 10 19 - - 0.0 - - - - - - -
31/07:30pm 19.9 N 8 15 - - 0.0 - - - - - - -
31/07:00pm 20.5 NNW 11 18 - - 0.0 - - - - - - -
31/06:30pm 21.0 N 11 24 - - 0.0 - - - - - - -
31/06:00pm 21.4 NNW 9 14 - - 0.0 - - - - - - -
31/05:30pm 22.2 NNW 10 16 - - 0.0 - - - - - - -
31/05:00pm 22.9 NNW 14 22 - - 0.0 - - - - - - -
31/04:30pm 23.8 NNW 14 24 - - 0.0 - - - - - - -
31/04:10pm 24.2 NNW 15 27 - - 0.0 - - - - - - -
31/04:00pm 24.4 NNW 14 22 - - 0.0 - - - - - - -
31/03:30pm 25.1 NNW 11 20 - - 0.0 - - - - - - -
31/03:00pm 25.2 NW 13 22 - - 0.0 - - - - - - -
31/02:30pm 25.5 NW 12 18 - - 0.0 - - - - - - -
31/02:00pm 25.4 NW 13 20 - - 0.0 - - - - - - -
31/01:45pm 25.3 NW 15 25 - - 0.0 - - - - - - -
31/01:30pm 25.5 NNW 14 24 - - 0.0 - - - - - - -
31/01:00pm 25.5 NNW 10 17 - - 0.0 - - - - - - -
31/12:30pm 25.0 NNW 11 23 - - 0.0 - - - - - - -
31/12:00pm 24.1 NNW 10 18 - - 0.0 - - - - - - -
31/11:30am 23.0 N 8 14 - - 0.0 - - - - - - -
31/11:00am 22.0 N 11 19 - - 0.0 - - - - - - -
31/10:30am 21.4 N 10 16 - - 0.0 - - - - - - -
31/10:00am 21.0 N 8 12 - - 0.0 - - - - - - -
31/09:30am 20.5 N 9 15 - - 0.0 - - - - - - -
31/09:00am 20.3 NNW 6 10 - - 0.0 - - - - - - -
31/08:30am 19.5 NW 4 8 - - 0.0 - - - - - - -
31/08:00am 18.4 NW 8 11 - - 0.0 - - - - - - -
31/07:30am 16.5 N 3 9 - - 0.0 - - - - - - -
31/07:00am 16.0 N 4 7 - - 0.0 - - - - - - -
31/06:30am 16.2 N 4 7 - - 0.0 - - - - - - -
31/06:00am 16.8 NNW 5 10 - - 0.0 - - - - - - -
31/05:30am 16.6 N 3 6 - - 0.0 - - - - - - -
31/05:00am 15.8 NNE 4 8 - - 0.0 - - - - - - -
31/04:30am 15.9 NNE 7 10 - - 0.0 - - - - - - -
31/04:00am 16.0 NNE 9 13 - - 0.0 - - - - - - -
31/03:30am 14.5 NNE 7 13 - - 0.0 - - - - - - -
31/03:00am 13.3 N 4 7 - - 0.0 - - - - - - -
31/02:30am 13.4 N 5 7 - - 0.0 - - - - - - -
31/02:00am 13.7 N 5 9 - - 0.0 - - - - - - -
31/01:30am 14.0 N 5 7 - - 0.0 - - - - - - -
31/01:00am 14.4 N 4 6 - - 0.0 - - - - - - -
31/12:30am 14.5 NNW 4 6 - - 0.0 - - - - - - -
31/12:00am 14.7 NNW 3 4 - - 0.0 - - - - - - -
 
Date/Time
EST
Temp

°C
Wind Pressure Rain
since 9am
mm
Weather Cloud Vis
km
Sea
Height
m
Swell
Dir
 
Speed
knots
Gust
knots
hPa Trend Height
m
Period
s
Dir
30/11:30pm 15.0 NNW 5 7 - - 0.0 - - - - - - -
30/11:00pm 15.9 N 7 10 - - 0.0 - - - - - - -
30/10:30pm 15.6 NNW 4 6 - - 0.0 - - - - - - -
30/10:00pm 15.5 NNW 5 7 - - 0.0 - - - - - - -
30/09:30pm 15.1 NNW 1 3 - - 0.0 - - - - - - -
30/09:00pm 15.2 N 1 2 - - 0.0 - - - - - - -
30/08:30pm 16.3 N 4 6 - - 0.0 - - - - - - -
30/08:00pm 16.9 N 6 10 - - 0.0 - - - - - - -
30/07:30pm 17.6 NNW 7 13 - - 0.0 - - - - - - -
30/07:00pm 17.8 NW 6 13 - - 0.0 - - - - - - -
30/06:30pm 18.1 NW 7 12 - - 0.0 - - - - - - -
30/06:00pm 17.8 NW 3 4 - - 0.0 - - - - - - -
30/05:30pm 18.8 NW 8 13 - - 0.0 - - - - - - -
30/05:00pm 19.1 WNW 8 13 - - 0.0 - - - - - - -
30/04:30pm 19.8 W 6 10 - - 0.0 - - - - - - -
30/04:00pm 20.0 W 15 24 - - 0.0 - - - - - - -
30/03:30pm 20.5 NW 7 12 - - 0.0 - - - - - - -
30/03:00pm 20.9 W 13 20 - - 0.0 - - - - - - -
30/02:30pm 20.8 WNW 12 20 - - 0.0 - - - - - - -
30/02:00pm 20.9 W 12 19 - - 0.0 - - - - - - -
30/01:30pm 20.9 W 11 15 - - 0.0 - - - - - - -
30/01:00pm 21.4 W 15 23 - - 0.0 - - - - - - -
30/12:30pm 21.1 WNW 10 18 - - 0.0 - - - - - - -
30/12:00pm 22.4 W 6 12 - - 0.0 - - - - - - -
30/11:30am 21.0 W 5 11 - - 0.0 - - - - - - -
30/11:00am 20.6 W 6 13 - - 0.0 - - - - - - -
30/10:30am 20.5 WNW 4 10 - - 0.0 - - - - - - -
30/10:00am 20.4 NW 6 10 - - 0.0 - - - - - - -
30/09:30am 19.6 NW 8 12 - - 0.0 - - - - - - -
30/09:00am 19.1 W 6 10 - - 0.0 - - - - - - -
30/08:30am 18.9 NW 6 9 - - 0.0 - - - - - - -
30/08:00am 18.3 NW 5 9 - - 0.0 - - - - - - -
30/07:30am 17.6 W 11 20 - - 0.0 - - - - - - -
30/07:20am 17.8 W 15 23 - - 0.0 - - - - - - -
30/07:00am 17.4 ENE 4 8 - - 0.0 - - - - - - -
30/06:30am 17.2 WSW 4 10 - - 0.0 - - - - - - -
30/06:00am 17.4 WNW 6 16 - - 0.0 - - - - - - -
30/05:30am 17.6 NNW 6 9 - - 0.0 - - - - - - -
30/05:00am 17.3 NNW 6 14 - - 0.0 - - - - - - -
30/04:30am 17.8 WSW 5 15 - - 0.0 - - - - - - -
30/04:00am 17.7 WNW 3 10 - - 0.0 - - - - - - -
30/03:30am 17.7 WSW 4 13 - - 0.0 - - - - - - -
30/03:00am 17.6 WNW 8 15 - - 0.0 - - - - - - -
30/02:30am 17.9 WNW 7 13 - - 0.0 - - - - - - -
30/02:00am 18.0 W 7 13 - - 0.0 - - - - - - -
30/01:30am 18.0 WNW 7 14 - - 0.0 - - - - - - -
30/01:00am 17.5 WNW 9 17 - - 0.0 - - - - - - -
30/12:30am 14.8 WNW 1 6 - - 0.0 - - - - - - -
30/12:00am 15.2 NNW 2 4 - - 0.0 - - - - - - -
 
Date/Time
EST
Temp

°C
Wind Pressure Rain
since 9am
mm
Weather Cloud Vis
km
Sea
Height
m
Swell
Dir
 
Speed
knots
Gust
knots
hPa Trend Height
m
Period
s
Dir
29/11:30pm 14.3 N 1 5 - - 0.0 - - - - - - -
29/11:00pm 16.0 NNW 2 6 - - 0.0 - - - - - - -
29/10:30pm 15.8 N 1 3 - - 0.0 - - - - - - -
29/10:00pm 16.2 N 4 5 - - 0.0 - - - - - - -
29/09:30pm 16.9 N 4 5 - - 0.0 - - - - - - -
29/09:00pm 16.9 N 4 8 - - 0.0 - - - - - - -
29/08:30pm 17.5 NNW 5 7 - - 0.0 - - - - - - -
29/08:00pm 17.5 NNW 5 8 - - 0.0 - - - - - - -
29/07:30pm 17.7 NNW 5 7 - - 0.0 - - - - - - -
29/07:00pm 18.1 NNW 3 7 - - 0.0 - - - - - - -
29/06:30pm 19.1 NW 7 11 - - 0.0 - - - - - - -
29/06:00pm 19.5 NNW 8 15 - - 0.0 - - - - - - -

Other Formats:

Comma delimited format used in spreadsheet applications
http://www.bom.gov.au/fwo/IDN60701/IDN60701.95749.axf

JavaScript Object Notation format (JSON) in row-major order
http://www.bom.gov.au/fwo/IDN60701/IDN60701.95749.json